createdAt,value
2023-02-26T00:00:57.081Z,98705.38
2023-02-26T00:03:31.063Z,98701.22
2023-02-26T00:06:04.471Z,98653.53
2023-02-26T00:08:38.260Z,98701.84
2023-02-26T00:11:12.241Z,98696.50
2023-02-26T00:13:46.784Z,98685.81
2023-02-26T00:16:28.969Z,98692.50
2023-02-26T00:19:05.804Z,98688.16
2023-02-26T00:21:40.267Z,98673.44
2023-02-26T00:24:13.755Z,98676.44
2023-02-26T00:26:47.351Z,98694.00
2023-02-26T00:29:21.461Z,98685.13
2023-02-26T00:31:57.159Z,98676.09
2023-02-26T00:34:31.550Z,98682.13
2023-02-26T00:37:14.422Z,98664.41
2023-02-26T00:39:57.704Z,98657.41
2023-02-26T00:42:31.489Z,98688.63
2023-02-26T00:45:06.540Z,98721.44
2023-02-26T00:47:49.875Z,98705.19
2023-02-26T00:50:25.473Z,98714.22
2023-02-26T00:53:09.738Z,98706.84
2023-02-26T00:55:43.195Z,98717.91
2023-02-26T00:58:16.394Z,98715.06
2023-02-26T01:00:49.691Z,98713.91
2023-02-26T01:03:25.089Z,98732.63
2023-02-26T01:05:58.996Z,98718.72
2023-02-26T01:08:41.430Z,98715.41
2023-02-26T01:11:15.297Z,98720.91
2023-02-26T01:13:49.530Z,98709.22
2023-02-26T01:16:29.078Z,98716.56
2023-02-26T01:19:15.338Z,98708.56
2023-02-26T01:21:54.492Z,98704.03
2023-02-26T01:24:32.155Z,98730.78
2023-02-26T01:27:06.491Z,98718.06
2023-02-26T01:29:40.526Z,98720.09
2023-02-26T01:32:17.521Z,98719.91
2023-02-26T01:34:58.961Z,98726.28
2023-02-26T01:37:41.578Z,98699.88
2023-02-26T01:40:34.649Z,98709.22
2023-02-26T01:43:13.832Z,98712.91
2023-02-26T01:45:57.020Z,98716.91
2023-02-26T01:48:38.141Z,98715.25
2023-02-26T01:51:13.221Z,98721.25
2023-02-26T01:53:46.498Z,98733.97
2023-02-26T01:56:20.948Z,98730.28
2023-02-26T01:58:54.700Z,98725.25
2023-02-26T02:01:28.186Z,98736.28
2023-02-26T02:04:02.106Z,98743.66
2023-02-26T02:06:37.976Z,98747.16
2023-02-26T02:09:11.559Z,98750.50
2023-02-26T02:12:01.240Z,98750.34
2023-02-26T02:14:47.406Z,98756.38
2023-02-26T02:17:28.749Z,98750.69
2023-02-26T02:20:28.207Z,98759.53
2023-02-26T02:23:12.025Z,98758.34
2023-02-26T02:26:12.510Z,98767.53
2023-02-26T02:29:03.340Z,98763.38
2023-02-26T02:31:45.603Z,98759.69
2023-02-26T02:34:23.567Z,98764.03
2023-02-26T02:37:00.809Z,98777.41
2023-02-26T02:39:38.672Z,98785.78
2023-02-26T02:42:24.185Z,98788.94
2023-02-26T02:45:01.851Z,98782.44
2023-02-26T02:47:41.604Z,98777.41
2023-02-26T02:50:22.273Z,98785.59
2023-02-26T02:52:59.771Z,98772.72
2023-02-26T02:55:38.230Z,98796.97
2023-02-26T02:58:14.832Z,98785.59
2023-02-26T03:00:52.704Z,98789.28
2023-02-26T03:03:35.410Z,98793.63
2023-02-26T03:06:08.957Z,98815.84
2023-02-26T03:08:44.146Z,98823.22
2023-02-26T03:11:18.255Z,98824.03
2023-02-26T03:13:54.197Z,98820.72
2023-02-26T03:16:48.307Z,98814.84
2023-02-26T03:19:30.765Z,98817.03
2023-02-26T03:22:10.224Z,98818.53
2023-02-26T03:24:50.905Z,98827.56
2023-02-26T03:27:30.077Z,98830.22
2023-02-26T03:30:09.195Z,98834.75
2023-02-26T03:32:48.293Z,98843.47
2023-02-26T03:35:29.275Z,98837.91
2023-02-26T03:38:06.160Z,98833.72
2023-02-26T03:40:44.737Z,98822.69
2023-02-26T03:43:23.389Z,98823.88
2023-02-26T03:46:03.397Z,98820.22
2023-02-26T03:48:37.874Z,98834.91
2023-02-26T03:51:14.743Z,98823.50
2023-02-26T03:53:53.350Z,98820.84
2023-02-26T03:56:31.556Z,98810.81
2023-02-26T03:59:05.508Z,98817.84
2023-02-26T04:01:43.676Z,98819.66
2023-02-26T04:04:21.682Z,98814.59
2023-02-26T04:06:56.880Z,98828.97
2023-02-26T04:09:30.632Z,98830.50
2023-02-26T04:12:05.502Z,98828.78
2023-02-26T04:14:39.364Z,98825.41
2023-02-26T04:17:13.303Z,98818.75
2023-02-26T04:19:47.037Z,98813.53
2023-02-26T04:22:21.829Z,98817.72
2023-02-26T04:24:55.222Z,98816.03
2023-02-26T04:27:28.365Z,98810.38
2023-02-26T04:30:01.473Z,98809.88
2023-02-26T04:32:34.921Z,98794.81
2023-02-26T04:35:09.938Z,98798.16
2023-02-26T04:37:44.655Z,98799.31
2023-02-26T04:40:18.437Z,98789.09
2023-02-26T04:42:52.226Z,98807.66
2023-02-26T04:45:25.421Z,98806.00
2023-02-26T04:47:59.016Z,98768.47
2023-02-26T04:50:32.586Z,98808.34
2023-02-26T04:53:07.504Z,98803.00
2023-02-26T04:55:41.385Z,98783.97
2023-02-26T04:58:14.374Z,98789.31
2023-02-26T05:00:49.834Z,98785.66
2023-02-26T05:03:23.766Z,98792.16
2023-02-26T05:05:57.254Z,98770.41
2023-02-26T05:08:32.284Z,98793.81
2023-02-26T05:11:05.653Z,98800.31
2023-02-26T05:13:40.358Z,98805.34
2023-02-26T05:16:14.205Z,98805.34
2023-02-26T05:18:47.737Z,98800.16
2023-02-26T05:21:22.488Z,98800.16
2023-02-26T05:23:58.309Z,98780.44
2023-02-26T05:26:31.838Z,98785.66
2023-02-26T05:29:05.318Z,98775.41
2023-02-26T05:31:38.572Z,98784.66
2023-02-26T05:34:11.857Z,98790.38
2023-02-26T05:36:45.749Z,98793.88
2023-02-26T05:39:20.563Z,98799.56
2023-02-26T05:41:55.478Z,98786.69
2023-02-26T05:44:29.199Z,98789.34
2023-02-26T05:47:02.542Z,98782.19
2023-02-26T05:49:36.011Z,98790.94
2023-02-26T05:52:09.289Z,98794.78
2023-02-26T05:54:43.820Z,98798.16
2023-02-26T05:57:17.336Z,98817.03
2023-02-26T05:59:51.224Z,98813.84
2023-02-26T06:02:24.791Z,98825.84
2023-02-26T06:04:58.010Z,98818.53
2023-02-26T06:07:31.195Z,98815.19
2023-02-26T06:10:06.628Z,98819.22
2023-02-26T06:12:40.783Z,98826.78
2023-02-26T06:15:14.348Z,98830.94
2023-02-26T06:17:47.680Z,98833.13
2023-02-26T06:20:21.316Z,98821.78
2023-02-26T06:22:54.800Z,98819.13
2023-02-26T06:25:29.537Z,98815.25
2023-02-26T06:28:03.609Z,98807.88
2023-02-26T06:30:37.459Z,98819.63
2023-02-26T06:33:11.161Z,98803.72
2023-02-26T06:35:44.361Z,98813.91
2023-02-26T06:38:18.600Z,98810.88
2023-02-26T06:40:53.450Z,98824.28
2023-02-26T06:43:27.228Z,98830.47
2023-02-26T06:46:01.456Z,98818.59
2023-02-26T06:48:35.252Z,98784.16
2023-02-26T06:51:09.120Z,98817.09
2023-02-26T06:53:42.385Z,98841.84
2023-02-26T06:56:17.026Z,98809.56
2023-02-26T06:58:50.414Z,98867.13
2023-02-26T07:01:24.319Z,98850.06
2023-02-26T07:03:57.872Z,98852.06
2023-02-26T07:06:31.575Z,98878.50
2023-02-26T07:09:05.185Z,98862.06
2023-02-26T07:11:39.873Z,98856.41
2023-02-26T07:14:13.859Z,98858.25
2023-02-26T07:16:47.335Z,98846.19
2023-02-26T07:19:20.559Z,98852.38
2023-02-26T07:21:55.034Z,98848.00
2023-02-26T07:24:28.768Z,98850.53
2023-02-26T07:27:03.396Z,98848.34
2023-02-26T07:29:37.052Z,98833.97
2023-02-26T07:32:10.732Z,98845.97
2023-02-26T07:34:44.265Z,98828.88
2023-02-26T07:37:17.601Z,98837.09
2023-02-26T07:39:51.276Z,98839.44
2023-02-26T07:42:26.105Z,98857.19
2023-02-26T07:44:59.915Z,98847.69
2023-02-26T07:47:32.970Z,98827.06
2023-02-26T07:50:06.913Z,98819.53
2023-02-26T07:52:40.821Z,98819.84
2023-02-26T07:55:14.746Z,98825.41
2023-02-26T07:57:50.270Z,98834.13
2023-02-26T08:00:23.908Z,98823.22
2023-02-26T08:02:57.245Z,98848.00
2023-02-26T08:05:31.065Z,98854.88
2023-02-26T08:08:04.506Z,98868.75
2023-02-26T08:10:41.920Z,98864.38
2023-02-26T08:13:18.535Z,98859.28
2023-02-26T08:15:52.114Z,98855.59
2023-02-26T08:18:25.807Z,98863.84
2023-02-26T08:20:59.262Z,98823.97
2023-02-26T08:23:32.919Z,98859.16
2023-02-26T08:26:08.957Z,98839.34
2023-02-26T08:28:43.563Z,98866.47
2023-02-26T08:31:17.236Z,98828.69
2023-02-26T08:33:50.522Z,98864.72
2023-02-26T08:36:24.329Z,98858.88
2023-02-26T08:38:58.336Z,98846.56
2023-02-26T08:41:32.707Z,98834.66
2023-02-26T08:44:08.327Z,98828.25
2023-02-26T08:46:41.614Z,98854.25
2023-02-26T08:49:14.776Z,98836.59
2023-02-26T08:51:47.965Z,98848.03
2023-02-26T08:54:21.430Z,98820.88
2023-02-26T08:56:57.752Z,98825.22
2023-02-26T08:59:32.424Z,98829.59
2023-02-26T09:02:05.946Z,98822.50
2023-02-26T09:04:39.271Z,98815.13
2023-02-26T09:07:12.564Z,98812.47
2023-02-26T09:09:45.754Z,98804.31
2023-02-26T09:12:20.308Z,98815.22
2023-02-26T09:14:55.605Z,98818.88
2023-02-26T09:17:28.927Z,98832.44
2023-02-26T09:20:02.455Z,98829.44
2023-02-26T09:22:36.694Z,98849.41
2023-02-26T09:25:10.672Z,98864.28
2023-02-26T09:27:44.665Z,98857.16
2023-02-26T09:30:19.964Z,98865.25
2023-02-26T09:32:53.230Z,98888.66
2023-02-26T09:35:26.735Z,98885.31
2023-02-26T09:38:00.376Z,98879.75
2023-02-26T09:40:46.015Z,98852.88
2023-02-26T09:43:34.884Z,98872.38
2023-02-26T09:46:18.324Z,98873.56
2023-02-26T09:48:55.149Z,98886.44
2023-02-26T09:51:28.576Z,98871.34
2023-02-26T09:54:13.354Z,98868.97
2023-02-26T09:56:48.279Z,98850.63
2023-02-26T09:59:21.552Z,98870.06
2023-02-26T10:02:01.659Z,98865.06
2023-02-26T10:04:49.566Z,98861.91
2023-02-26T10:07:34.347Z,98870.44
2023-02-26T10:10:20.624Z,98852.50
2023-02-26T10:12:54.868Z,98852.69
2023-02-26T10:15:36.025Z,98856.16
2023-02-26T10:18:15.583Z,98857.53
2023-02-26T10:20:55.658Z,98817.16
2023-02-26T10:23:37.650Z,98828.66
2023-02-26T10:26:15.023Z,98841.91
2023-02-26T10:29:03.939Z,98821.16
2023-02-26T10:31:44.611Z,98823.66
2023-02-26T10:34:26.448Z,98804.47
2023-02-26T10:37:05.755Z,98802.41
2023-02-26T10:39:44.881Z,98810.28
2023-02-26T10:42:24.309Z,98797.91
2023-02-26T10:45:12.661Z,98823.91
2023-02-26T10:47:53.973Z,98838.28
2023-02-26T10:50:30.697Z,98805.09
2023-02-26T10:53:05.106Z,98815.03
2023-02-26T10:55:42.965Z,98804.38
2023-02-26T10:58:19.108Z,98811.31
2023-02-26T11:00:54.653Z,98806.31
2023-02-26T11:03:33.569Z,98814.94
2023-02-26T11:06:09.552Z,98800.97
2023-02-26T11:08:45.624Z,98796.22
2023-02-26T11:11:37.612Z,98795.44
2023-02-26T11:14:12.575Z,98806.53
2023-02-26T11:16:50.336Z,98786.66
2023-02-26T11:19:29.393Z,98801.59
2023-02-26T11:22:05.417Z,98808.28
2023-02-26T11:24:41.582Z,98807.41
2023-02-26T11:27:17.730Z,98819.84
2023-02-26T11:30:00.597Z,98816.97
2023-02-26T11:32:37.357Z,98816.88
2023-02-26T11:35:16.626Z,98825.41
2023-02-26T11:37:56.210Z,98822.44
2023-02-26T11:40:38.423Z,98830.59
2023-02-26T11:43:16.432Z,98855.91
2023-02-26T11:45:55.692Z,98869.09
2023-02-26T11:48:40.395Z,98863.53
2023-02-26T11:51:16.866Z,98875.38
2023-02-26T11:53:54.002Z,98871.31
2023-02-26T11:56:31.117Z,98853.22
2023-02-26T11:59:08.715Z,98856.00
2023-02-26T12:01:43.194Z,98870.41
2023-02-26T12:04:21.850Z,98864.41
2023-02-26T12:06:57.248Z,98860.22
2023-02-26T12:09:31.943Z,98831.53
2023-02-26T12:12:27.127Z,98837.53
2023-02-26T12:15:39.244Z,98831.41
2023-02-26T12:18:43.447Z,98838.47
2023-02-26T12:21:36.274Z,98841.41
2023-02-26T12:24:31.848Z,98842.78
2023-02-26T12:27:19.630Z,98834.09
2023-02-26T12:30:08.272Z,98811.53
2023-02-26T12:32:58.841Z,98853.44
2023-02-26T12:35:44.760Z,98870.94
2023-02-26T12:38:25.661Z,98861.41
2023-02-26T12:41:20.877Z,98853.22
2023-02-26T12:43:57.482Z,98853.78
2023-02-26T12:46:44.945Z,98869.28
2023-02-26T12:49:34.925Z,98885.38
2023-02-26T12:52:40.892Z,98882.16
2023-02-26T12:55:28.092Z,98907.91
2023-02-26T12:58:19.342Z,98909.56
2023-02-26T13:01:10.088Z,98912.41
2023-02-26T13:04:23.822Z,98785.72
2023-02-26T13:07:10.453Z,98810.78
2023-02-26T13:09:57.396Z,98877.94
2023-02-26T13:12:42.256Z,98871.16
2023-02-26T13:15:30.743Z,98861.69
2023-02-26T13:18:11.490Z,98861.13
2023-02-26T13:21:00.535Z,98873.66
2023-02-26T13:23:38.590Z,98811.59
2023-02-26T13:26:14.958Z,98868.44
2023-02-26T13:28:53.989Z,98870.84
2023-02-26T13:31:32.481Z,98854.25
2023-02-26T13:34:14.664Z,98868.66
2023-02-26T13:36:49.321Z,98884.84
2023-02-26T13:39:40.262Z,98872.72
2023-02-26T13:42:26.594Z,98881.59
2023-02-26T13:45:19.956Z,98874.94
2023-02-26T13:48:05.698Z,98894.38
2023-02-26T13:50:50.326Z,98908.38
2023-02-26T13:53:38.044Z,98926.97
2023-02-26T13:56:16.928Z,98927.97
2023-02-26T13:58:54.116Z,98941.66
2023-02-26T14:01:30.332Z,98941.66
2023-02-26T14:04:23.863Z,98942.56
2023-02-26T14:07:00.823Z,98927.25
2023-02-26T14:09:46.889Z,98942.69
2023-02-26T14:12:36.553Z,98901.72
2023-02-26T14:15:29.570Z,98926.47
2023-02-26T14:18:06.758Z,98920.47
2023-02-26T14:20:40.913Z,98931.44
2023-02-26T14:23:30.054Z,98940.63
2023-02-26T14:26:14.632Z,98913.38
2023-02-26T14:28:58.303Z,98921.47
2023-02-26T14:31:51.968Z,98911.75
2023-02-26T14:34:28.259Z,98902.25
2023-02-26T14:37:07.088Z,98914.13
2023-02-26T14:39:47.106Z,98908.56
2023-02-26T14:42:24.584Z,98943.47
2023-02-26T14:45:18.701Z,98922.25
2023-02-26T14:47:52.379Z,98913.91
2023-02-26T14:50:25.861Z,98923.78
2023-02-26T14:53:34.117Z,98936.22
2023-02-26T14:56:16.824Z,98880.06
2023-02-26T14:59:23.822Z,98935.31
2023-02-26T15:02:09.795Z,98945.41
2023-02-26T15:05:13.611Z,98944.00
2023-02-26T15:08:02.007Z,98944.50
2023-02-26T15:10:44.891Z,98935.41
2023-02-26T15:13:43.386Z,98947.97
2023-02-26T15:16:33.251Z,98944.81
2023-02-26T15:19:26.052Z,98980.09
2023-02-26T15:22:10.807Z,98971.50
2023-02-26T15:24:44.373Z,98973.22
2023-02-26T15:27:20.106Z,98974.22
2023-02-26T15:29:54.924Z,98977.97
2023-02-26T15:32:30.715Z,98978.63
2023-02-26T15:35:12.026Z,98982.81
2023-02-26T15:37:50.689Z,98940.56
2023-02-26T15:40:24.729Z,98956.22
2023-02-26T15:42:58.707Z,98973.81
2023-02-26T15:45:37.847Z,98954.53
2023-02-26T15:48:15.522Z,98976.00
2023-02-26T15:50:54.149Z,98995.63
2023-02-26T15:53:33.136Z,98988.41
2023-02-26T15:56:10.990Z,98997.94
2023-02-26T15:58:47.773Z,98955.09
2023-02-26T16:01:26.460Z,98984.41
2023-02-26T16:04:05.926Z,98996.97
2023-02-26T16:06:42.172Z,98994.81
2023-02-26T16:09:21.192Z,98986.75
2023-02-26T16:12:01.205Z,98982.09
2023-02-26T16:14:39.595Z,98996.16
2023-02-26T16:17:22.926Z,98991.16
2023-02-26T16:19:59.513Z,98990.78
2023-02-26T16:22:37.454Z,99005.56
2023-02-26T16:25:17.357Z,99013.63
2023-02-26T16:27:58.423Z,99011.81
2023-02-26T16:30:35.943Z,99021.59
2023-02-26T16:33:15.296Z,99015.13
2023-02-26T16:35:51.028Z,99011.31
2023-02-26T16:38:29.668Z,99003.44
2023-02-26T16:41:10.985Z,99017.72
2023-02-26T16:43:52.831Z,99000.25
2023-02-26T16:46:35.722Z,99021.75
2023-02-26T16:49:16.144Z,99020.59
2023-02-26T16:51:50.253Z,99012.53
2023-02-26T16:54:27.326Z,99004.84
2023-02-26T16:57:06.850Z,99000.00
2023-02-26T16:59:43.428Z,99012.53
2023-02-26T17:02:20.220Z,99001.75
2023-02-26T17:04:59.102Z,99008.66
2023-02-26T17:07:34.797Z,99015.06
2023-02-26T17:10:19.545Z,99028.28
2023-02-26T17:13:02.932Z,99040.38
2023-02-26T17:15:39.603Z,99033.19
2023-02-26T17:18:13.808Z,99014.75
2023-02-26T17:20:48.893Z,99041.88
2023-02-26T17:23:24.465Z,99039.81
2023-02-26T17:26:02.331Z,99050.94
2023-02-26T17:28:41.030Z,99055.94
2023-02-26T17:31:15.208Z,99053.94
2023-02-26T17:33:48.659Z,99042.41
2023-02-26T17:36:23.502Z,99045.75
2023-02-26T17:38:56.783Z,99044.75
2023-02-26T17:41:30.592Z,99047.91
2023-02-26T17:44:04.146Z,99061.66
2023-02-26T17:46:37.664Z,99068.03
2023-02-26T17:49:11.921Z,99072.06
2023-02-26T17:51:46.841Z,99060.50
2023-02-26T17:54:20.392Z,99060.47
2023-02-26T17:56:53.977Z,99055.31
2023-02-26T17:59:28.725Z,99048.94
2023-02-26T18:02:02.489Z,99028.81
2023-02-26T18:04:36.178Z,99034.81
2023-02-26T18:07:16.475Z,99037.84
2023-02-26T18:09:49.901Z,99041.03
2023-02-26T18:12:24.118Z,99046.25
2023-02-26T18:14:57.960Z,99049.59
2023-02-26T18:17:32.550Z,99039.19
2023-02-26T18:20:09.500Z,99040.19
2023-02-26T18:22:44.408Z,99050.59
2023-02-26T18:25:18.811Z,99049.94
2023-02-26T18:28:00.004Z,99050.28
2023-02-26T18:30:36.417Z,99046.25
2023-02-26T18:33:09.749Z,99021.16
2023-02-26T18:35:45.966Z,99036.19
2023-02-26T18:38:23.424Z,99052.97
2023-02-26T18:40:57.184Z,99069.72
2023-02-26T18:43:31.114Z,99043.06
2023-02-26T18:46:04.771Z,99081.78
2023-02-26T18:48:38.118Z,99061.00
2023-02-26T18:51:11.680Z,99076.44
2023-02-26T18:53:46.362Z,99073.75
2023-02-26T18:56:20.615Z,99089.50
2023-02-26T18:58:54.482Z,99075.91
2023-02-26T19:01:29.882Z,99083.66
2023-02-26T19:04:03.526Z,99090.38
2023-02-26T19:06:37.108Z,99078.13
2023-02-26T19:09:12.553Z,99086.00
2023-02-26T19:11:47.533Z,99080.50
2023-02-26T19:14:21.463Z,99066.06
2023-02-26T19:16:55.918Z,99088.50
2023-02-26T19:19:30.037Z,99085.00
2023-02-26T19:22:03.660Z,99092.53
2023-02-26T19:24:39.042Z,99072.09
2023-02-26T19:27:14.494Z,99079.75
2023-02-26T19:29:48.073Z,99071.41
2023-02-26T19:32:21.705Z,99080.31
2023-02-26T19:34:55.169Z,99089.84
2023-02-26T19:37:28.797Z,99097.91
2023-02-26T19:40:08.280Z,99085.16
2023-02-26T19:42:41.654Z,99089.53
2023-02-26T19:45:16.143Z,99085.69
2023-02-26T19:47:50.036Z,99089.03
2023-02-26T19:50:25.562Z,99089.22
2023-02-26T19:52:59.528Z,99097.09
2023-02-26T19:55:34.464Z,99077.78
2023-02-26T19:58:08.621Z,99067.41
2023-02-26T20:00:42.264Z,99072.59
2023-02-26T20:03:15.708Z,99073.09
2023-02-26T20:05:49.485Z,99063.22
2023-02-26T20:08:25.737Z,99063.88
2023-02-26T20:11:00.594Z,99050.81
2023-02-26T20:13:36.214Z,99058.69
2023-02-26T20:16:10.764Z,99046.09
2023-02-26T20:18:45.867Z,99053.31
2023-02-26T20:21:19.600Z,99055.00
2023-02-26T20:23:53.280Z,99060.38
2023-02-26T20:26:28.108Z,99058.69
2023-02-26T20:29:01.914Z,99063.88
2023-02-26T20:31:35.909Z,99067.75
2023-02-26T20:34:09.104Z,99061.69
2023-02-26T20:36:45.286Z,99063.88
2023-02-26T20:39:19.478Z,99076.78
2023-02-26T20:41:54.490Z,99059.16
2023-02-26T20:44:27.988Z,99065.03
2023-02-26T20:47:02.631Z,99077.78
2023-02-26T20:49:36.594Z,99075.97
2023-02-26T20:52:10.207Z,99067.03
2023-02-26T20:54:44.869Z,99063.22
2023-02-26T20:57:19.716Z,99056.00
2023-02-26T20:59:53.323Z,99062.66
2023-02-26T21:02:27.009Z,99057.66
2023-02-26T21:05:01.196Z,99043.06
2023-02-26T21:07:36.303Z,99041.53
2023-02-26T21:10:12.680Z,99066.38
2023-02-26T21:12:47.988Z,99048.25
2023-02-26T21:15:21.761Z,99031.69
2023-02-26T21:17:56.482Z,99033.81
2023-02-26T21:20:30.969Z,99043.88
2023-02-26T21:23:04.169Z,99036.19
2023-02-26T21:25:38.528Z,99048.94
2023-02-26T21:28:13.255Z,99049.28
2023-02-26T21:30:46.560Z,99053.97
2023-02-26T21:33:20.464Z,99064.38
2023-02-26T21:35:54.566Z,99059.84
2023-02-26T21:38:27.889Z,99063.69
2023-02-26T21:41:01.405Z,99021.28
2023-02-26T21:43:35.943Z,99031.44
2023-02-26T21:46:08.987Z,99029.63
2023-02-26T21:48:42.554Z,99016.88
2023-02-26T21:51:16.594Z,99010.84
2023-02-26T21:53:50.752Z,99029.78
2023-02-26T21:56:24.479Z,99020.06
2023-02-26T21:58:59.344Z,99022.75
2023-02-26T22:01:33.059Z,99026.78
2023-02-26T22:04:06.564Z,99022.94
2023-02-26T22:06:40.005Z,99020.94
2023-02-26T22:09:13.737Z,99026.78
2023-02-26T22:11:49.182Z,99016.06
2023-02-26T22:14:24.246Z,99032.00
2023-02-26T22:16:58.632Z,99013.41
2023-02-26T22:19:32.036Z,99049.06
2023-02-26T22:22:05.698Z,99049.25
2023-02-26T22:24:41.062Z,99044.75
2023-02-26T22:27:14.275Z,99066.75
2023-02-26T22:29:49.303Z,99057.97
2023-02-26T22:32:22.707Z,99065.03
2023-02-26T22:34:56.201Z,99056.31
2023-02-26T22:37:29.889Z,99046.56
2023-02-26T22:40:04.392Z,99055.44
2023-02-26T22:42:37.852Z,99061.00
2023-02-26T22:45:16.973Z,99061.31
2023-02-26T22:47:50.575Z,99058.16
2023-02-26T22:50:23.922Z,99059.66
2023-02-26T22:52:57.302Z,99057.97
2023-02-26T22:55:31.128Z,99066.56
2023-02-26T22:58:07.835Z,99054.16
2023-02-26T23:00:42.491Z,99053.31
2023-02-26T23:03:16.563Z,99057.16
2023-02-26T23:05:51.040Z,99042.59
2023-02-26T23:08:25.790Z,99049.94
2023-02-26T23:11:01.548Z,99049.94
2023-02-26T23:13:36.624Z,99056.53
2023-02-26T23:16:12.978Z,99064.75
2023-02-26T23:18:48.117Z,99025.84
2023-02-26T23:21:21.842Z,99059.72
2023-02-26T23:23:56.682Z,99069.78
2023-02-26T23:26:30.498Z,99063.25
2023-02-26T23:29:06.322Z,99063.75
2023-02-26T23:31:41.906Z,99064.25
2023-02-26T23:34:15.382Z,99057.72
2023-02-26T23:36:49.122Z,99065.28
2023-02-26T23:39:22.527Z,99056.22
2023-02-26T23:41:56.335Z,99046.31
2023-02-26T23:44:29.782Z,99039.28
2023-02-26T23:47:04.390Z,99058.91
2023-02-26T23:49:37.541Z,99067.13
2023-02-26T23:52:11.273Z,99068.81
2023-02-26T23:54:45.143Z,99055.03
2023-02-26T23:57:18.270Z,99062.28
2023-02-26T23:59:51.579Z,99065.47
